Time;durP1;ratioP1;P1;durP2;ratioP2;P2;SDS_P1;SDS_P2;PMS_P1;PMS_P2;Temp;Humidity;BMP_temperature;BMP_pressure;BME280_temperature;BME280_humidity;BME280_pressure;Samples;Min_cycle;Max_cycle;Signal;HPM_P1;HPM_P2
2022/05/14 00:04:20;;;;;;;9.10;3.60;;;14.50;73.00;;;;;;21088107;28;20232;-69
2022/05/14 00:14:22;;;;;;;7.03;3.33;;;14.20;74.00;;;;;;21079786;28;20208;-72
2022/05/14 00:24:24;;;;;;;6.33;3.50;;;14.10;74.70;;;;;;21078675;28;20271;-69
2022/05/14 00:34:25;;;;;;;5.87;2.93;;;14.10;75.10;;;;;;21078451;28;20209;-64
2022/05/14 00:44:27;;;;;;;8.10;3.57;;;14.00;75.20;;;;;;21078101;28;20245;-62
2022/05/14 00:54:42;;;;;;;9.63;3.30;;;13.90;75.50;;;;;;21078722;28;20722;-62
2022/05/14 01:04:45;;;;;;;6.57;3.27;;;13.70;76.40;;;;;;21077197;28;20292;-64
2022/05/14 01:14:47;;;;;;;7.13;3.30;;;13.60;76.80;;;;;;21083374;28;20732;-67
2022/05/14 01:35:41;;;;;;;6.70;3.53;;;13.20;77.90;;;;;;21091820;28;20204;-71
2022/05/14 01:45:43;;;;;;;8.63;4.30;;;13.10;78.30;;;;;;21090863;28;20636;-69
2022/05/14 01:55:44;;;;;;;5.77;3.30;;;13.00;78.20;;;;;;21090638;28;20304;-64
2022/05/14 02:05:46;;;;;;;10.13;3.80;;;12.90;78.80;;;;;;21089504;28;20279;-65
2022/05/14 02:15:48;;;;;;;12.07;4.20;;;12.80;79.40;;;;;;21088632;28;20229;-64
2022/05/14 02:25:49;;;;;;;9.50;4.00;;;12.80;79.80;;;;;;21087327;28;20243;-67
2022/05/14 02:35:51;;;;;;;10.53;4.43;;;12.70;80.20;;;;;;21087982;28;20549;-63
2022/05/14 02:45:53;;;;;;;11.33;4.13;;;12.80;80.40;;;;;;21086164;28;20642;-70
2022/05/14 02:55:54;;;;;;;12.80;4.77;;;12.80;80.70;;;;;;21085507;28;20211;-69
2022/05/14 03:05:56;;;;;;;8.83;4.57;;;12.70;81.20;;;;;;21084294;28;20281;-68
2022/05/14 03:15:58;;;;;;;7.03;3.60;;;12.60;81.70;;;;;;21083713;28;20776;-65
2022/05/14 03:26:00;;;;;;;4.93;3.40;;;12.60;81.70;;;;;;21094179;28;20235;-71
2022/05/14 03:36:01;;;;;;;5.07;3.47;;;12.50;82.20;;;;;;21086824;28;20225;-68
2022/05/14 03:46:03;;;;;;;6.53;3.30;;;12.50;82.40;;;;;;21081531;28;20232;-64
2022/05/14 03:56:06;;;;;;;5.70;3.43;;;12.40;82.80;;;;;;21081040;28;20208;-62
2022/05/14 04:06:07;;;;;;;6.27;3.53;;;12.30;82.30;;;;;;21079812;28;20694;-64
2022/05/14 04:16:10;;;;;;;4.87;3.43;;;12.30;82.90;;;;;;21079422;28;20237;-62
2022/05/14 04:26:12;;;;;;;8.50;3.40;;;12.30;83.30;;;;;;21079115;28;20759;-62
2022/05/14 04:36:14;;;;;;;7.27;4.87;;;12.50;83.50;;;;;;21078203;28;20206;-63
2022/05/14 04:46:16;;;;;;;6.33;3.47;;;12.50;83.60;;;;;;21077939;28;20238;-63
2022/05/14 04:56:18;;;;;;;6.00;4.10;;;12.80;83.60;;;;;;21076959;28;20203;-62
2022/05/14 05:06:23;;;;;;;5.90;3.63;;;12.90;83.60;;;;;;21093936;28;20248;-62
2022/05/14 05:16:25;;;;;;;6.77;3.50;;;12.90;83.50;;;;;;21104218;28;20234;-63
2022/05/14 05:26:27;;;;;;;11.53;3.80;;;13.20;83.60;;;;;;21093604;28;20237;-61
2022/05/14 05:36:30;;;;;;;6.10;3.77;;;13.40;83.20;;;;;;21087734;28;20238;-61
2022/05/14 05:46:33;;;;;;;8.87;3.83;;;13.50;83.30;;;;;;21089385;28;20330;-62
2022/05/14 05:56:47;;;;;;;8.00;3.97;;;13.90;83.50;;;;;;21090346;28;20218;-62
2022/05/14 06:06:49;;;;;;;5.97;4.10;;;14.20;83.00;;;;;;21072402;28;20272;-62
2022/05/14 06:16:51;;;;;;;8.30;3.53;;;14.50;82.60;;;;;;21088359;28;20741;-70
2022/05/14 06:26:53;;;;;;;7.50;3.70;;;14.80;82.30;;;;;;21088835;28;20253;-62
2022/05/14 06:36:54;;;;;;;7.97;3.30;;;15.30;81.70;;;;;;21088604;28;20199;-65
2022/05/14 06:46:57;;;;;;;6.87;3.73;;;15.50;80.80;;;;;;21087708;28;20728;-63
2022/05/14 06:57:06;;;;;;;6.40;3.20;;;15.80;80.30;;;;;;21088138;28;20570;-65
2022/05/14 07:07:08;;;;;;;7.83;3.80;;;16.30;79.80;;;;;;21079590;28;20230;-64
2022/05/14 07:17:10;;;;;;;8.67;3.17;;;16.60;79.50;;;;;;21041823;28;20237;-68
2022/05/14 07:27:13;;;;;;;7.40;3.40;;;17.00;77.70;;;;;;21081854;28;20667;-65
2022/05/14 07:37:19;;;;;;;6.40;2.60;;;17.30;76.20;;;;;;21081736;28;20778;-71
2022/05/14 07:47:22;;;;;;;8.03;2.30;;;17.50;74.80;;;;;;21084744;28;20227;-70
2022/05/14 07:57:23;;;;;;;6.70;2.50;;;17.80;73.20;;;;;;21082992;28;20334;-66
2022/05/14 08:07:26;;;;;;;8.37;2.87;;;18.00;71.30;;;;;;21079678;28;20232;-68
2022/05/14 08:17:32;;;;;;;9.87;2.77;;;18.30;70.00;;;;;;21078968;28;20244;-64
2022/05/14 08:27:44;;;;;;;9.43;2.70;;;18.50;68.70;;;;;;21078689;28;20259;-68
2022/05/14 08:37:49;;;;;;;5.37;2.17;;;18.90;67.70;;;;;;21077558;28;20208;-65
2022/05/14 08:47:57;;;;;;;18.33;9.53;;;19.20;66.10;;;;;;21078390;28;20302;-65
2022/05/14 08:58:10;;;;;;;5.37;2.93;;;19.30;63.90;;;;;;21078109;28;20206;-63
2022/05/14 09:08:12;;;;;;;10.63;4.40;;;19.50;62.60;;;;;;21054931;28;20692;-66
2022/05/14 09:18:25;;;;;;;9.17;4.27;;;19.70;60.10;;;;;;21059010;28;20634;-68
2022/05/14 09:28:37;;;;;;;6.13;2.00;;;20.00;59.40;;;;;;21076649;28;20239;-64
2022/05/14 09:38:42;;;;;;;5.13;2.20;;;20.30;58.80;;;;;;21087210;28;20293;-63
2022/05/14 09:48:47;;;;;;;7.90;2.70;;;20.50;58.60;;;;;;21095495;28;20246;-63
2022/05/14 09:59:14;;;;;;;9.30;3.43;;;20.60;58.50;;;;;;21092512;28;20278;-66
2022/05/14 10:09:19;;;;;;;7.80;2.63;;;20.90;58.50;;;;;;21091829;28;20237;-65
2022/05/14 10:19:52;;;;;;;15.37;2.40;;;20.90;58.00;;;;;;21104719;28;20330;-67
2022/05/14 10:30:16;;;;;;;10.63;2.10;;;20.90;58.10;;;;;;21098816;28;20318;-67
2022/05/14 10:40:21;;;;;;;6.57;2.57;;;21.00;57.40;;;;;;21088491;28;20612;-67
2022/05/14 10:50:24;;;;;;;6.27;1.70;;;21.20;58.00;;;;;;21085739;28;20610;-67
2022/05/14 11:00:29;;;;;;;5.67;1.80;;;21.40;58.10;;;;;;21083908;28;20620;-65
2022/05/14 11:10:34;;;;;;;8.37;2.00;;;21.50;57.40;;;;;;21078256;28;20230;-65
2022/05/14 11:20:37;;;;;;;6.17;1.70;;;21.80;59.60;;;;;;21083192;28;20235;-62
2022/05/14 11:30:51;;;;;;;2.60;1.40;;;21.80;58.40;;;;;;21046811;28;20234;-64
2022/05/14 11:41:25;;;;;;;4.13;1.80;;;21.90;57.30;;;;;;20998427;28;20222;-68
2022/05/14 11:51:51;;;;;;;7.47;2.30;;;22.10;56.20;;;;;;21000990;28;20655;-69
2022/05/14 12:01:59;;;;;;;5.67;2.10;;;22.50;55.60;;;;;;21044338;28;20208;-66
2022/05/14 12:12:12;;;;;;;4.00;1.33;;;22.80;55.50;;;;;;21079637;28;20314;-69
2022/05/14 12:22:22;;;;;;;5.53;2.23;;;23.20;54.80;;;;;;21077045;28;20235;-71
2022/05/14 12:42:46;;;;;;;10.43;2.10;;;23.60;53.00;;;;;;21079280;28;20207;-67
2022/05/14 12:52:57;;;;;;;5.03;1.57;;;23.50;51.70;;;;;;21157182;28;20692;-65
2022/05/14 13:03:25;;;;;;;4.30;1.60;;;23.40;51.40;;;;;;21174686;28;20700;-62
2022/05/14 13:13:41;;;;;;;4.87;1.60;;;23.40;49.60;;;;;;21142692;28;20318;-63
2022/05/14 13:23:56;;;;;;;5.03;1.70;;;23.50;49.60;;;;;;21092878;28;20238;-63
2022/05/14 13:37:07;;;;;;;2.60;1.43;;;23.50;49.10;;;;;;21093486;28;20211;-63
2022/05/14 13:44:26;;;;;;;5.37;1.70;;;23.50;47.40;;;;;;21092950;28;20235;-63
2022/05/14 13:54:35;;;;;;;5.37;1.90;;;23.60;47.90;;;;;;21091644;28;20581;-64
2022/05/14 14:04:41;;;;;;;4.90;2.67;;;23.70;48.10;;;;;;21090259;28;20256;-65
2022/05/14 14:14:43;;;;;;;3.97;1.50;;;24.00;48.30;;;;;;21090424;28;20227;-68
2022/05/14 14:24:49;;;;;;;3.40;1.80;;;25.70;46.00;;;;;;21087765;28;20242;-67
2022/05/14 14:34:52;;;;;;;4.73;1.70;;;27.10;44.40;;;;;;21088042;28;20203;-64
2022/05/14 14:44:53;;;;;;;3.40;1.80;;;26.50;44.50;;;;;;21087952;28;20234;-71
2022/05/14 14:54:55;;;;;;;5.50;1.80;;;27.60;43.70;;;;;;21086601;28;20206;-69
2022/05/14 15:05:06;;;;;;;5.87;1.40;;;26.90;43.90;;;;;;21085587;28;20628;-69
2022/05/14 15:15:10;;;;;;;3.90;1.50;;;26.40;43.90;;;;;;21068712;28;20239;-71
2022/05/14 15:25:12;;;;;;;1.60;1.30;;;26.60;43.20;;;;;;20997696;28;20230;-71
2022/05/14 15:35:15;;;;;;;4.43;1.50;;;25.80;43.70;;;;;;21029463;28;20204;-71
2022/05/14 15:45:24;;;;;;;3.83;1.67;;;25.40;43.70;;;;;;21009457;28;20249;-71
2022/05/14 15:55:28;;;;;;;3.20;1.50;;;25.20;43.70;;;;;;20998148;28;20722;-69
2022/05/14 16:05:30;;;;;;;4.63;1.53;;;25.20;43.60;;;;;;20996858;28;20231;-69
2022/05/14 16:26:03;;;;;;;6.13;1.57;;;25.10;41.70;;;;;;20978892;28;20771;-71
2022/05/14 16:36:06;;;;;;;5.50;1.60;;;25.20;40.60;;;;;;20995589;28;20206;-66
2022/05/14 16:46:09;;;;;;;2.43;1.43;;;25.30;39.00;;;;;;20994878;28;20241;-66
2022/05/14 16:56:15;;;;;;;4.77;1.57;;;25.00;39.30;;;;;;20995044;28;20203;-65
2022/05/14 17:06:18;;;;;;;3.23;1.33;;;24.60;39.70;;;;;;20997966;28;20428;-66
2022/05/14 17:16:20;;;;;;;4.00;1.37;;;24.60;39.70;;;;;;20993691;28;20231;-72
2022/05/14 17:26:22;;;;;;;4.63;1.57;;;24.40;40.10;;;;;;20992036;28;20289;-72
2022/05/14 17:36:24;;;;;;;4.00;1.93;;;24.20;40.50;;;;;;20993956;28;20199;-70
2022/05/14 17:46:26;;;;;;;3.37;1.57;;;24.10;40.80;;;;;;20993759;28;20235;-71
2022/05/14 17:56:29;;;;;;;5.53;1.83;;;23.90;41.70;;;;;;21021803;28;20620;-65
2022/05/14 18:06:32;;;;;;;3.40;1.47;;;23.70;42.40;;;;;;21066463;28;20234;-65
2022/05/14 18:16:34;;;;;;;3.70;1.80;;;23.50;42.70;;;;;;21088340;28;20249;-64
2022/05/14 18:27:11;;;;;;;6.03;2.13;;;23.30;43.30;;;;;;21087596;28;20317;-64
2022/05/14 18:37:15;;;;;;;7.60;4.33;;;23.00;43.90;;;;;;21083814;28;20198;-70
2022/05/14 18:47:17;;;;;;;5.47;2.80;;;22.70;44.60;;;;;;21085554;28;20230;-68
2022/05/14 18:57:20;;;;;;;4.43;2.00;;;22.30;45.80;;;;;;21085717;28;20215;-62
2022/05/14 19:07:22;;;;;;;6.57;2.30;;;21.90;46.60;;;;;;21082889;28;20693;-62
2022/05/14 19:17:25;;;;;;;7.70;2.80;;;21.70;48.20;;;;;;21082435;28;20325;-67
2022/05/14 19:27:26;;;;;;;5.57;2.80;;;21.40;49.40;;;;;;21081631;28;20240;-65
2022/05/14 19:37:41;;;;;;;6.67;2.77;;;21.10;50.50;;;;;;21080483;28;20202;-65
2022/05/14 19:47:45;;;;;;;6.97;2.90;;;20.90;51.20;;;;;;21079855;28;20696;-63
2022/05/14 19:57:47;;;;;;;5.73;3.20;;;20.50;52.90;;;;;;21055673;28;20554;-64
2022/05/14 20:07:49;;;;;;;6.97;3.20;;;20.10;54.40;;;;;;20992499;28;20290;-61
2022/05/14 20:28:12;;;;;;;8.40;3.60;;;19.60;56.20;;;;;;20993910;28;20706;-62
2022/05/14 20:38:16;;;;;;;8.07;3.50;;;19.40;56.80;;;;;;20993548;28;20267;-66
2022/05/14 20:48:18;;;;;;;10.27;5.53;;;19.10;57.60;;;;;;21006718;28;20284;-71
2022/05/14 20:58:24;;;;;;;6.47;4.20;;;18.90;58.60;;;;;;21009678;28;20207;-63
2022/05/14 21:08:26;;;;;;;6.77;3.67;;;18.60;59.30;;;;;;21063679;28;20246;-64
2022/05/14 21:18:28;;;;;;;7.47;3.37;;;18.50;59.90;;;;;;21075339;28;20243;-63
2022/05/14 21:28:29;;;;;;;8.70;3.97;;;18.20;61.20;;;;;;21057573;28;20287;-70
2022/05/14 21:38:31;;;;;;;6.47;3.60;;;18.10;61.80;;;;;;21072740;28;20206;-65
2022/05/14 21:48:33;;;;;;;9.17;3.73;;;17.70;62.80;;;;;;21089322;28;20245;-63
2022/05/14 21:58:34;;;;;;;6.87;3.40;;;17.30;64.50;;;;;;21062508;28;20214;-61
2022/05/14 22:08:36;;;;;;;7.83;3.60;;;17.10;65.50;;;;;;21002134;28;20238;-62
2022/05/14 22:18:38;;;;;;;7.90;3.77;;;16.80;65.40;;;;;;21004833;28;20234;-62
2022/05/14 22:28:40;;;;;;;8.50;3.60;;;16.90;66.20;;;;;;21003186;28;20241;-65
2022/05/14 22:38:42;;;;;;;5.87;3.27;;;16.80;66.90;;;;;;21002936;28;20208;-61
2022/05/14 22:48:44;;;;;;;6.03;3.30;;;16.50;67.80;;;;;;21001814;28;20252;-66
2022/05/14 22:58:48;;;;;;;6.70;3.60;;;16.40;68.70;;;;;;21001080;28;20203;-71
2022/05/14 23:08:50;;;;;;;6.70;3.87;;;16.10;69.40;;;;;;21010056;28;20235;-63
2022/05/14 23:18:51;;;;;;;4.47;3.33;;;15.90;70.30;;;;;;21005968;28;20231;-64
2022/05/14 23:28:53;;;;;;;9.73;4.23;;;15.70;71.10;;;;;;20997785;28;20237;-69
2022/05/14 23:38:57;;;;;;;8.80;3.70;;;15.50;71.90;;;;;;20997385;28;20205;-62
2022/05/14 23:48:59;;;;;;;15.90;6.57;;;15.40;72.50;;;;;;20994778;28;20246;-61
